sensor_id;sensor_type;location;lat;lon;timestamp;P1;durP1;ratioP1;P2;durP2;ratioP2
43580;SDS011;29175;51.030;4.606;2023-08-24T00:00:47;26.42;;;9.57;;
43580;SDS011;29175;51.030;4.606;2023-08-24T00:03:13;20.85;;;8.68;;
43580;SDS011;29175;51.030;4.606;2023-08-24T00:05:38;22.70;;;9.48;;
43580;SDS011;29175;51.030;4.606;2023-08-24T00:08:07;14.77;;;8.13;;
43580;SDS011;29175;51.030;4.606;2023-08-24T00:10:34;17.02;;;7.10;;
43580;SDS011;29175;51.030;4.606;2023-08-24T00:13:00;17.75;;;7.15;;
43580;SDS011;29175;51.030;4.606;2023-08-24T00:15:27;13.85;;;7.68;;
43580;SDS011;29175;51.030;4.606;2023-08-24T00:17:55;12.52;;;5.60;;
43580;SDS011;29175;51.030;4.606;2023-08-24T00:20:21;12.15;;;5.75;;
43580;SDS011;29175;51.030;4.606;2023-08-24T00:22:48;15.88;;;6.82;;
43580;SDS011;29175;51.030;4.606;2023-08-24T00:25:14;13.93;;;6.55;;
43580;SDS011;29175;51.030;4.606;2023-08-24T00:27:40;14.38;;;6.57;;
43580;SDS011;29175;51.030;4.606;2023-08-24T00:30:06;15.50;;;5.90;;
43580;SDS011;29175;51.030;4.606;2023-08-24T00:32:33;10.23;;;5.13;;
43580;SDS011;29175;51.030;4.606;2023-08-24T00:35:03;27.92;;;7.47;;
43580;SDS011;29175;51.030;4.606;2023-08-24T00:37:32;13.18;;;6.05;;
43580;SDS011;29175;51.030;4.606;2023-08-24T00:40:03;13.40;;;5.80;;
43580;SDS011;29175;51.030;4.606;2023-08-24T00:42:36;11.52;;;5.10;;
43580;SDS011;29175;51.030;4.606;2023-08-24T00:45:07;10.93;;;4.78;;
43580;SDS011;29175;51.030;4.606;2023-08-24T00:47:34;8.68;;;4.80;;
43580;SDS011;29175;51.030;4.606;2023-08-24T00:50:03;13.93;;;5.60;;
43580;SDS011;29175;51.030;4.606;2023-08-24T00:52:31;16.27;;;6.35;;
43580;SDS011;29175;51.030;4.606;2023-08-24T00:54:58;16.35;;;6.72;;
43580;SDS011;29175;51.030;4.606;2023-08-24T00:57:26;14.82;;;5.85;;
43580;SDS011;29175;51.030;4.606;2023-08-24T00:59:53;14.65;;;5.82;;
43580;SDS011;29175;51.030;4.606;2023-08-24T01:02:20;16.90;;;7.10;;
43580;SDS011;29175;51.030;4.606;2023-08-24T01:04:46;13.43;;;6.50;;
43580;SDS011;29175;51.030;4.606;2023-08-24T01:07:13;21.50;;;6.72;;
43580;SDS011;29175;51.030;4.606;2023-08-24T01:09:41;11.20;;;5.97;;
43580;SDS011;29175;51.030;4.606;2023-08-24T01:12:18;15.18;;;6.43;;
43580;SDS011;29175;51.030;4.606;2023-08-24T01:15:15;17.25;;;5.88;;
43580;SDS011;29175;51.030;4.606;2023-08-24T01:17:55;13.40;;;5.75;;
43580;SDS011;29175;51.030;4.606;2023-08-24T01:20:27;11.77;;;5.40;;
43580;SDS011;29175;51.030;4.606;2023-08-24T01:26:00;14.32;;;5.82;;
43580;SDS011;29175;51.030;4.606;2023-08-24T01:28:26;26.25;;;6.80;;
43580;SDS011;29175;51.030;4.606;2023-08-24T01:30:54;12.27;;;5.47;;
43580;SDS011;29175;51.030;4.606;2023-08-24T01:33:19;14.55;;;6.57;;
43580;SDS011;29175;51.030;4.606;2023-08-24T01:35:46;13.45;;;5.75;;
43580;SDS011;29175;51.030;4.606;2023-08-24T01:38:13;15.15;;;5.15;;
43580;SDS011;29175;51.030;4.606;2023-08-24T01:41:02;15.77;;;5.47;;
43580;SDS011;29175;51.030;4.606;2023-08-24T01:43:54;10.05;;;5.25;;
43580;SDS011;29175;51.030;4.606;2023-08-24T01:46:25;9.82;;;5.47;;
43580;SDS011;29175;51.030;4.606;2023-08-24T01:48:51;12.32;;;5.35;;
43580;SDS011;29175;51.030;4.606;2023-08-24T01:51:18;9.48;;;4.65;;
43580;SDS011;29175;51.030;4.606;2023-08-24T01:53:44;11.20;;;4.93;;
43580;SDS011;29175;51.030;4.606;2023-08-24T01:56:12;11.60;;;5.03;;
43580;SDS011;29175;51.030;4.606;2023-08-24T01:58:40;12.27;;;4.97;;
43580;SDS011;29175;51.030;4.606;2023-08-24T02:01:05;13.88;;;5.00;;
43580;SDS011;29175;51.030;4.606;2023-08-24T02:03:32;9.07;;;4.72;;
43580;SDS011;29175;51.030;4.606;2023-08-24T02:05:58;12.63;;;5.47;;
43580;SDS011;29175;51.030;4.606;2023-08-24T02:08:25;12.73;;;6.38;;
43580;SDS011;29175;51.030;4.606;2023-08-24T02:10:51;17.50;;;5.70;;
43580;SDS011;29175;51.030;4.606;2023-08-24T02:13:16;10.77;;;4.90;;
43580;SDS011;29175;51.030;4.606;2023-08-24T02:15:42;12.25;;;4.97;;
43580;SDS011;29175;51.030;4.606;2023-08-24T02:18:08;12.40;;;4.28;;
43580;SDS011;29175;51.030;4.606;2023-08-24T02:20:37;10.57;;;4.35;;
43580;SDS011;29175;51.030;4.606;2023-08-24T02:23:03;18.17;;;6.57;;
43580;SDS011;29175;51.030;4.606;2023-08-24T02:25:30;12.68;;;4.85;;
43580;SDS011;29175;51.030;4.606;2023-08-24T02:27:57;16.00;;;6.25;;
43580;SDS011;29175;51.030;4.606;2023-08-24T02:30:23;11.82;;;5.90;;
43580;SDS011;29175;51.030;4.606;2023-08-24T02:32:49;18.25;;;7.90;;
43580;SDS011;29175;51.030;4.606;2023-08-24T02:35:15;21.13;;;7.57;;
43580;SDS011;29175;51.030;4.606;2023-08-24T02:37:41;20.73;;;8.00;;
43580;SDS011;29175;51.030;4.606;2023-08-24T02:40:07;19.45;;;7.85;;
43580;SDS011;29175;51.030;4.606;2023-08-24T02:42:34;20.00;;;8.70;;
43580;SDS011;29175;51.030;4.606;2023-08-24T02:45:00;16.80;;;8.60;;
43580;SDS011;29175;51.030;4.606;2023-08-24T02:47:27;15.73;;;7.63;;
43580;SDS011;29175;51.030;4.606;2023-08-24T02:49:53;21.95;;;9.45;;
43580;SDS011;29175;51.030;4.606;2023-08-24T02:52:18;21.27;;;8.50;;
43580;SDS011;29175;51.030;4.606;2023-08-24T02:54:46;21.13;;;8.75;;
43580;SDS011;29175;51.030;4.606;2023-08-24T02:57:13;17.95;;;8.93;;
43580;SDS011;29175;51.030;4.606;2023-08-24T02:59:39;23.40;;;8.85;;
43580;SDS011;29175;51.030;4.606;2023-08-24T03:02:09;20.52;;;9.10;;
43580;SDS011;29175;51.030;4.606;2023-08-24T03:04:35;19.73;;;8.63;;
43580;SDS011;29175;51.030;4.606;2023-08-24T03:07:01;17.33;;;8.90;;
43580;SDS011;29175;51.030;4.606;2023-08-24T03:09:28;20.65;;;9.57;;
43580;SDS011;29175;51.030;4.606;2023-08-24T03:11:54;19.17;;;8.90;;
43580;SDS011;29175;51.030;4.606;2023-08-24T03:14:19;20.25;;;8.30;;
43580;SDS011;29175;51.030;4.606;2023-08-24T03:16:45;15.80;;;8.18;;
43580;SDS011;29175;51.030;4.606;2023-08-24T03:19:11;17.42;;;8.95;;
43580;SDS011;29175;51.030;4.606;2023-08-24T03:21:40;15.10;;;7.78;;
43580;SDS011;29175;51.030;4.606;2023-08-24T03:24:06;16.17;;;7.28;;
43580;SDS011;29175;51.030;4.606;2023-08-24T03:26:32;18.13;;;7.25;;
43580;SDS011;29175;51.030;4.606;2023-08-24T03:28:59;17.45;;;8.50;;
43580;SDS011;29175;51.030;4.606;2023-08-24T03:31:25;18.52;;;7.57;;
43580;SDS011;29175;51.030;4.606;2023-08-24T03:33:52;17.05;;;8.68;;
43580;SDS011;29175;51.030;4.606;2023-08-24T03:36:18;18.48;;;8.43;;
43580;SDS011;29175;51.030;4.606;2023-08-24T03:38:44;18.15;;;9.40;;
43580;SDS011;29175;51.030;4.606;2023-08-24T03:41:12;19.17;;;9.45;;
43580;SDS011;29175;51.030;4.606;2023-08-24T03:43:39;19.65;;;9.10;;
43580;SDS011;29175;51.030;4.606;2023-08-24T03:46:05;20.13;;;9.85;;
43580;SDS011;29175;51.030;4.606;2023-08-24T03:48:32;17.73;;;9.15;;
43580;SDS011;29175;51.030;4.606;2023-08-24T03:50:59;19.38;;;9.38;;
43580;SDS011;29175;51.030;4.606;2023-08-24T03:53:26;20.88;;;9.27;;
43580;SDS011;29175;51.030;4.606;2023-08-24T03:55:52;21.35;;;9.43;;
43580;SDS011;29175;51.030;4.606;2023-08-24T03:58:21;14.95;;;7.75;;
43580;SDS011;29175;51.030;4.606;2023-08-24T04:00:48;16.38;;;8.05;;
43580;SDS011;29175;51.030;4.606;2023-08-24T04:03:13;17.40;;;9.57;;
43580;SDS011;29175;51.030;4.606;2023-08-24T04:05:41;20.05;;;9.88;;
43580;SDS011;29175;51.030;4.606;2023-08-24T04:08:07;23.33;;;10.25;;
43580;SDS011;29175;51.030;4.606;2023-08-24T04:10:33;16.23;;;8.35;;
43580;SDS011;29175;51.030;4.606;2023-08-24T04:12:58;18.35;;;9.27;;
43580;SDS011;29175;51.030;4.606;2023-08-24T04:15:24;18.67;;;9.60;;
43580;SDS011;29175;51.030;4.606;2023-08-24T04:17:51;24.77;;;8.80;;
43580;SDS011;29175;51.030;4.606;2023-08-24T04:20:18;24.83;;;10.00;;
43580;SDS011;29175;51.030;4.606;2023-08-24T04:22:43;21.88;;;10.18;;
43580;SDS011;29175;51.030;4.606;2023-08-24T04:25:10;17.75;;;9.73;;
43580;SDS011;29175;51.030;4.606;2023-08-24T04:27:36;19.70;;;9.25;;
43580;SDS011;29175;51.030;4.606;2023-08-24T04:30:02;20.00;;;9.75;;
43580;SDS011;29175;51.030;4.606;2023-08-24T04:32:28;17.83;;;9.50;;
43580;SDS011;29175;51.030;4.606;2023-08-24T04:34:54;17.38;;;9.93;;
43580;SDS011;29175;51.030;4.606;2023-08-24T04:37:20;20.92;;;10.02;;
43580;SDS011;29175;51.030;4.606;2023-08-24T04:39:47;21.92;;;10.88;;
43580;SDS011;29175;51.030;4.606;2023-08-24T04:42:12;24.10;;;10.32;;
43580;SDS011;29175;51.030;4.606;2023-08-24T04:44:38;29.02;;;12.07;;
43580;SDS011;29175;51.030;4.606;2023-08-24T04:47:04;18.60;;;10.75;;
43580;SDS011;29175;51.030;4.606;2023-08-24T04:49:30;24.58;;;11.07;;
43580;SDS011;29175;51.030;4.606;2023-08-24T04:51:56;21.40;;;9.77;;
43580;SDS011;29175;51.030;4.606;2023-08-24T04:54:21;20.20;;;10.80;;
43580;SDS011;29175;51.030;4.606;2023-08-24T04:56:47;20.23;;;10.05;;
43580;SDS011;29175;51.030;4.606;2023-08-24T04:59:13;23.48;;;10.57;;
43580;SDS011;29175;51.030;4.606;2023-08-24T05:01:39;28.42;;;11.73;;
43580;SDS011;29175;51.030;4.606;2023-08-24T05:04:05;23.17;;;10.50;;
43580;SDS011;29175;51.030;4.606;2023-08-24T05:06:30;23.67;;;10.93;;
43580;SDS011;29175;51.030;4.606;2023-08-24T05:08:56;25.45;;;11.32;;
43580;SDS011;29175;51.030;4.606;2023-08-24T05:11:22;30.88;;;11.90;;
43580;SDS011;29175;51.030;4.606;2023-08-24T05:13:49;31.05;;;12.25;;
43580;SDS011;29175;51.030;4.606;2023-08-24T05:16:15;25.00;;;10.95;;
43580;SDS011;29175;51.030;4.606;2023-08-24T05:18:42;26.13;;;11.52;;
43580;SDS011;29175;51.030;4.606;2023-08-24T05:21:07;21.73;;;10.32;;
43580;SDS011;29175;51.030;4.606;2023-08-24T05:23:33;24.17;;;11.27;;
43580;SDS011;29175;51.030;4.606;2023-08-24T05:26:00;21.17;;;11.07;;
43580;SDS011;29175;51.030;4.606;2023-08-24T05:28:27;26.60;;;11.15;;
43580;SDS011;29175;51.030;4.606;2023-08-24T05:30:54;20.80;;;10.52;;
43580;SDS011;29175;51.030;4.606;2023-08-24T05:33:21;22.05;;;10.38;;
43580;SDS011;29175;51.030;4.606;2023-08-24T05:35:50;21.35;;;11.32;;
43580;SDS011;29175;51.030;4.606;2023-08-24T05:38:18;29.38;;;12.07;;
43580;SDS011;29175;51.030;4.606;2023-08-24T05:40:48;28.45;;;10.20;;
43580;SDS011;29175;51.030;4.606;2023-08-24T05:43:14;22.30;;;9.98;;
43580;SDS011;29175;51.030;4.606;2023-08-24T05:45:42;18.58;;;9.40;;
43580;SDS011;29175;51.030;4.606;2023-08-24T05:48:10;19.92;;;10.40;;
43580;SDS011;29175;51.030;4.606;2023-08-24T05:50:36;23.05;;;10.20;;
43580;SDS011;29175;51.030;4.606;2023-08-24T05:53:03;20.15;;;10.05;;
43580;SDS011;29175;51.030;4.606;2023-08-24T05:55:29;28.30;;;9.75;;
43580;SDS011;29175;51.030;4.606;2023-08-24T05:57:54;36.25;;;10.50;;
43580;SDS011;29175;51.030;4.606;2023-08-24T06:00:20;27.67;;;10.75;;
43580;SDS011;29175;51.030;4.606;2023-08-24T06:02:47;24.83;;;11.05;;
43580;SDS011;29175;51.030;4.606;2023-08-24T06:05:13;27.05;;;10.95;;
43580;SDS011;29175;51.030;4.606;2023-08-24T06:07:38;22.42;;;10.45;;
43580;SDS011;29175;51.030;4.606;2023-08-24T06:10:04;25.30;;;10.75;;
43580;SDS011;29175;51.030;4.606;2023-08-24T06:12:30;20.38;;;9.73;;
43580;SDS011;29175;51.030;4.606;2023-08-24T06:14:56;25.52;;;10.32;;
43580;SDS011;29175;51.030;4.606;2023-08-24T06:17:22;21.42;;;9.82;;
43580;SDS011;29175;51.030;4.606;2023-08-24T06:19:47;23.80;;;9.82;;
43580;SDS011;29175;51.030;4.606;2023-08-24T06:22:13;20.23;;;9.32;;
43580;SDS011;29175;51.030;4.606;2023-08-24T06:24:39;22.23;;;9.77;;
43580;SDS011;29175;51.030;4.606;2023-08-24T06:27:04;23.15;;;9.10;;
43580;SDS011;29175;51.030;4.606;2023-08-24T06:29:30;26.35;;;8.95;;
43580;SDS011;29175;51.030;4.606;2023-08-24T06:31:56;20.38;;;8.20;;
43580;SDS011;29175;51.030;4.606;2023-08-24T06:34:22;13.25;;;7.00;;
43580;SDS011;29175;51.030;4.606;2023-08-24T06:36:49;17.17;;;7.85;;
43580;SDS011;29175;51.030;4.606;2023-08-24T06:39:15;20.35;;;7.15;;
43580;SDS011;29175;51.030;4.606;2023-08-24T06:41:41;21.38;;;7.65;;
43580;SDS011;29175;51.030;4.606;2023-08-24T06:44:07;15.38;;;6.85;;
43580;SDS011;29175;51.030;4.606;2023-08-24T06:46:32;12.75;;;6.03;;
43580;SDS011;29175;51.030;4.606;2023-08-24T06:48:58;14.05;;;6.85;;
43580;SDS011;29175;51.030;4.606;2023-08-24T06:51:24;13.02;;;7.60;;
43580;SDS011;29175;51.030;4.606;2023-08-24T06:53:50;17.55;;;7.45;;
43580;SDS011;29175;51.030;4.606;2023-08-24T06:56:16;18.42;;;7.60;;
43580;SDS011;29175;51.030;4.606;2023-08-24T06:58:43;13.60;;;7.70;;
43580;SDS011;29175;51.030;4.606;2023-08-24T07:01:10;17.02;;;7.75;;
43580;SDS011;29175;51.030;4.606;2023-08-24T07:03:36;15.60;;;7.40;;
43580;SDS011;29175;51.030;4.606;2023-08-24T07:06:02;16.02;;;6.88;;
43580;SDS011;29175;51.030;4.606;2023-08-24T07:08:30;19.63;;;7.50;;
43580;SDS011;29175;51.030;4.606;2023-08-24T07:10:56;17.48;;;7.50;;
43580;SDS011;29175;51.030;4.606;2023-08-24T07:13:22;17.58;;;6.78;;
43580;SDS011;29175;51.030;4.606;2023-08-24T07:15:47;14.43;;;7.10;;
43580;SDS011;29175;51.030;4.606;2023-08-24T07:18:13;18.60;;;6.80;;
43580;SDS011;29175;51.030;4.606;2023-08-24T07:20:39;23.83;;;7.20;;
43580;SDS011;29175;51.030;4.606;2023-08-24T07:23:04;16.27;;;7.25;;
43580;SDS011;29175;51.030;4.606;2023-08-24T07:25:30;15.52;;;7.28;;
43580;SDS011;29175;51.030;4.606;2023-08-24T07:27:56;21.15;;;7.03;;
43580;SDS011;29175;51.030;4.606;2023-08-24T07:30:26;22.27;;;7.25;;
43580;SDS011;29175;51.030;4.606;2023-08-24T07:32:52;15.02;;;6.63;;
43580;SDS011;29175;51.030;4.606;2023-08-24T07:35:19;20.73;;;7.30;;
43580;SDS011;29175;51.030;4.606;2023-08-24T07:37:46;14.80;;;6.78;;
43580;SDS011;29175;51.030;4.606;2023-08-24T07:40:13;16.77;;;7.53;;
43580;SDS011;29175;51.030;4.606;2023-08-24T07:42:42;13.60;;;7.00;;
43580;SDS011;29175;51.030;4.606;2023-08-24T07:45:12;18.33;;;6.65;;
43580;SDS011;29175;51.030;4.606;2023-08-24T07:47:42;23.00;;;8.25;;
43580;SDS011;29175;51.030;4.606;2023-08-24T07:50:08;12.80;;;6.70;;
43580;SDS011;29175;51.030;4.606;2023-08-24T07:52:36;15.93;;;7.40;;
43580;SDS011;29175;51.030;4.606;2023-08-24T07:55:06;15.20;;;7.32;;
43580;SDS011;29175;51.030;4.606;2023-08-24T07:57:32;20.60;;;7.85;;
43580;SDS011;29175;51.030;4.606;2023-08-24T07:59:59;20.55;;;7.65;;
43580;SDS011;29175;51.030;4.606;2023-08-24T08:02:24;16.83;;;7.50;;
43580;SDS011;29175;51.030;4.606;2023-08-24T08:04:50;18.42;;;7.38;;
43580;SDS011;29175;51.030;4.606;2023-08-24T08:07:16;14.88;;;7.45;;
43580;SDS011;29175;51.030;4.606;2023-08-24T08:09:43;14.82;;;7.50;;
43580;SDS011;29175;51.030;4.606;2023-08-24T08:12:08;15.68;;;7.15;;
43580;SDS011;29175;51.030;4.606;2023-08-24T08:14:34;17.27;;;8.40;;
43580;SDS011;29175;51.030;4.606;2023-08-24T08:17:00;15.27;;;7.40;;
43580;SDS011;29175;51.030;4.606;2023-08-24T08:19:25;18.48;;;7.82;;
43580;SDS011;29175;51.030;4.606;2023-08-24T08:21:53;15.32;;;7.95;;
43580;SDS011;29175;51.030;4.606;2023-08-24T08:24:18;12.30;;;7.15;;
43580;SDS011;29175;51.030;4.606;2023-08-24T08:26:44;18.00;;;8.45;;
43580;SDS011;29175;51.030;4.606;2023-08-24T08:29:10;23.98;;;7.45;;
43580;SDS011;29175;51.030;4.606;2023-08-24T08:31:36;17.30;;;7.63;;
43580;SDS011;29175;51.030;4.606;2023-08-24T08:34:02;13.43;;;6.68;;
43580;SDS011;29175;51.030;4.606;2023-08-24T08:36:29;22.63;;;8.23;;
43580;SDS011;29175;51.030;4.606;2023-08-24T08:38:57;23.98;;;7.43;;
43580;SDS011;29175;51.030;4.606;2023-08-24T08:41:23;16.83;;;7.68;;
43580;SDS011;29175;51.030;4.606;2023-08-24T08:43:55;19.33;;;8.02;;
43580;SDS011;29175;51.030;4.606;2023-08-24T08:46:21;16.88;;;7.65;;
43580;SDS011;29175;51.030;4.606;2023-08-24T08:48:47;16.67;;;7.65;;
43580;SDS011;29175;51.030;4.606;2023-08-24T08:51:15;16.65;;;7.90;;
43580;SDS011;29175;51.030;4.606;2023-08-24T08:53:42;20.27;;;8.73;;
43580;SDS011;29175;51.030;4.606;2023-08-24T08:56:08;20.17;;;7.43;;
43580;SDS011;29175;51.030;4.606;2023-08-24T08:58:34;13.50;;;7.05;;
43580;SDS011;29175;51.030;4.606;2023-08-24T09:01:04;15.52;;;7.32;;
43580;SDS011;29175;51.030;4.606;2023-08-24T09:03:31;15.38;;;6.85;;
43580;SDS011;29175;51.030;4.606;2023-08-24T09:05:57;13.55;;;6.90;;
43580;SDS011;29175;51.030;4.606;2023-08-24T09:08:24;13.80;;;6.75;;
43580;SDS011;29175;51.030;4.606;2023-08-24T09:10:51;12.88;;;7.05;;
43580;SDS011;29175;51.030;4.606;2023-08-24T09:13:17;14.73;;;6.88;;
43580;SDS011;29175;51.030;4.606;2023-08-24T09:15:43;12.82;;;6.43;;
43580;SDS011;29175;51.030;4.606;2023-08-24T09:18:10;16.63;;;6.95;;
43580;SDS011;29175;51.030;4.606;2023-08-24T09:20:35;14.35;;;6.55;;
43580;SDS011;29175;51.030;4.606;2023-08-24T09:23:01;12.43;;;5.88;;
43580;SDS011;29175;51.030;4.606;2023-08-24T09:25:30;12.68;;;6.13;;
43580;SDS011;29175;51.030;4.606;2023-08-24T09:27:59;15.18;;;6.32;;
43580;SDS011;29175;51.030;4.606;2023-08-24T09:30:30;14.85;;;6.57;;
43580;SDS011;29175;51.030;4.606;2023-08-24T09:33:00;13.77;;;6.20;;
43580;SDS011;29175;51.030;4.606;2023-08-24T09:35:34;12.20;;;6.05;;
43580;SDS011;29175;51.030;4.606;2023-08-24T09:38:14;12.32;;;5.95;;
43580;SDS011;29175;51.030;4.606;2023-08-24T09:40:44;14.88;;;6.28;;
43580;SDS011;29175;51.030;4.606;2023-08-24T09:43:16;15.93;;;6.85;;
43580;SDS011;29175;51.030;4.606;2023-08-24T09:48:14;18.33;;;6.75;;
43580;SDS011;29175;51.030;4.606;2023-08-24T09:50:42;12.73;;;6.95;;
43580;SDS011;29175;51.030;4.606;2023-08-24T09:53:10;11.88;;;6.63;;
43580;SDS011;29175;51.030;4.606;2023-08-24T09:58:19;16.67;;;7.00;;
43580;SDS011;29175;51.030;4.606;2023-08-24T10:00:45;14.40;;;6.25;;
43580;SDS011;29175;51.030;4.606;2023-08-24T10:03:13;13.80;;;6.55;;
43580;SDS011;29175;51.030;4.606;2023-08-24T10:05:45;22.77;;;7.68;;
43580;SDS011;29175;51.030;4.606;2023-08-24T10:08:27;13.50;;;6.30;;
43580;SDS011;29175;51.030;4.606;2023-08-24T10:10:58;14.75;;;6.30;;
43580;SDS011;29175;51.030;4.606;2023-08-24T10:16:06;13.95;;;6.40;;
43580;SDS011;29175;51.030;4.606;2023-08-24T10:18:33;14.57;;;6.82;;
43580;SDS011;29175;51.030;4.606;2023-08-24T10:20:59;15.15;;;6.95;;
43580;SDS011;29175;51.030;4.606;2023-08-24T10:23:27;15.50;;;6.50;;
43580;SDS011;29175;51.030;4.606;2023-08-24T10:25:54;13.45;;;6.15;;
43580;SDS011;29175;51.030;4.606;2023-08-24T10:28:20;14.45;;;6.13;;
43580;SDS011;29175;51.030;4.606;2023-08-24T10:30:50;17.02;;;6.15;;
43580;SDS011;29175;51.030;4.606;2023-08-24T10:33:17;16.75;;;5.75;;
43580;SDS011;29175;51.030;4.606;2023-08-24T10:35:44;12.63;;;6.05;;
43580;SDS011;29175;51.030;4.606;2023-08-24T10:38:30;12.15;;;5.75;;
43580;SDS011;29175;51.030;4.606;2023-08-24T10:41:01;19.08;;;6.03;;
43580;SDS011;29175;51.030;4.606;2023-08-24T10:43:35;16.60;;;6.00;;
43580;SDS011;29175;51.030;4.606;2023-08-24T10:46:04;16.33;;;6.65;;
43580;SDS011;29175;51.030;4.606;2023-08-24T10:53:46;14.57;;;6.38;;
43580;SDS011;29175;51.030;4.606;2023-08-24T10:56:16;14.52;;;5.90;;
43580;SDS011;29175;51.030;4.606;2023-08-24T10:58:43;19.10;;;7.20;;
43580;SDS011;29175;51.030;4.606;2023-08-24T11:01:14;16.02;;;6.68;;
43580;SDS011;29175;51.030;4.606;2023-08-24T11:03:41;13.93;;;6.60;;
43580;SDS011;29175;51.030;4.606;2023-08-24T11:06:21;15.18;;;6.07;;
43580;SDS011;29175;51.030;4.606;2023-08-24T11:08:49;13.77;;;5.65;;
43580;SDS011;29175;51.030;4.606;2023-08-24T11:11:30;12.38;;;5.85;;
43580;SDS011;29175;51.030;4.606;2023-08-24T11:14:15;18.02;;;6.65;;
43580;SDS011;29175;51.030;4.606;2023-08-24T11:16:47;13.30;;;5.53;;
43580;SDS011;29175;51.030;4.606;2023-08-24T11:19:14;11.82;;;5.53;;
43580;SDS011;29175;51.030;4.606;2023-08-24T11:21:42;13.77;;;6.10;;
43580;SDS011;29175;51.030;4.606;2023-08-24T11:24:10;11.30;;;5.18;;
43580;SDS011;29175;51.030;4.606;2023-08-24T11:26:44;7.57;;;4.95;;
43580;SDS011;29175;51.030;4.606;2023-08-24T11:29:15;10.57;;;5.07;;
43580;SDS011;29175;51.030;4.606;2023-08-24T11:31:43;10.55;;;4.82;;
43580;SDS011;29175;51.030;4.606;2023-08-24T11:34:09;12.15;;;5.18;;
43580;SDS011;29175;51.030;4.606;2023-08-24T11:36:48;12.40;;;4.63;;
43580;SDS011;29175;51.030;4.606;2023-08-24T11:39:21;13.65;;;5.40;;
43580;SDS011;29175;51.030;4.606;2023-08-24T11:42:01;13.15;;;4.78;;
43580;SDS011;29175;51.030;4.606;2023-08-24T11:44:28;12.63;;;5.00;;
43580;SDS011;29175;51.030;4.606;2023-08-24T11:46:58;10.02;;;4.78;;
43580;SDS011;29175;51.030;4.606;2023-08-24T11:49:24;11.38;;;4.45;;
43580;SDS011;29175;51.030;4.606;2023-08-24T11:51:50;12.23;;;4.82;;
43580;SDS011;29175;51.030;4.606;2023-08-24T11:54:19;11.00;;;4.72;;
43580;SDS011;29175;51.030;4.606;2023-08-24T11:56:45;15.77;;;6.38;;
43580;SDS011;29175;51.030;4.606;2023-08-24T11:59:12;11.10;;;5.38;;
43580;SDS011;29175;51.030;4.606;2023-08-24T12:01:39;15.00;;;5.38;;
43580;SDS011;29175;51.030;4.606;2023-08-24T12:04:06;17.33;;;5.55;;
43580;SDS011;29175;51.030;4.606;2023-08-24T12:06:32;12.55;;;4.93;;
43580;SDS011;29175;51.030;4.606;2023-08-24T12:08:58;11.23;;;5.03;;
43580;SDS011;29175;51.030;4.606;2023-08-24T12:11:24;9.95;;;5.07;;
43580;SDS011;29175;51.030;4.606;2023-08-24T12:13:52;11.73;;;5.55;;
43580;SDS011;29175;51.030;4.606;2023-08-24T12:16:19;12.20;;;5.20;;
43580;SDS011;29175;51.030;4.606;2023-08-24T12:18:46;14.30;;;5.03;;
43580;SDS011;29175;51.030;4.606;2023-08-24T12:21:20;13.70;;;5.40;;
43580;SDS011;29175;51.030;4.606;2023-08-24T12:23:56;14.77;;;4.85;;
43580;SDS011;29175;51.030;4.606;2023-08-24T12:26:23;12.45;;;5.30;;
43580;SDS011;29175;51.030;4.606;2023-08-24T12:28:49;11.32;;;4.75;;
43580;SDS011;29175;51.030;4.606;2023-08-24T12:31:17;10.82;;;4.82;;
43580;SDS011;29175;51.030;4.606;2023-08-24T12:33:43;9.20;;;4.70;;
43580;SDS011;29175;51.030;4.606;2023-08-24T12:36:10;12.82;;;4.28;;
43580;SDS011;29175;51.030;4.606;2023-08-24T12:38:35;10.63;;;5.57;;
43580;SDS011;29175;51.030;4.606;2023-08-24T12:41:01;12.27;;;5.13;;
43580;SDS011;29175;51.030;4.606;2023-08-24T12:43:27;11.70;;;5.53;;
43580;SDS011;29175;51.030;4.606;2023-08-24T12:45:53;15.90;;;5.95;;
43580;SDS011;29175;51.030;4.606;2023-08-24T12:48:19;11.77;;;5.85;;
43580;SDS011;29175;51.030;4.606;2023-08-24T12:50:44;12.45;;;4.82;;
43580;SDS011;29175;51.030;4.606;2023-08-24T12:53:10;12.00;;;5.75;;
43580;SDS011;29175;51.030;4.606;2023-08-24T12:55:38;11.20;;;5.20;;
43580;SDS011;29175;51.030;4.606;2023-08-24T12:58:05;10.97;;;5.53;;
43580;SDS011;29175;51.030;4.606;2023-08-24T13:00:31;12.07;;;5.72;;
43580;SDS011;29175;51.030;4.606;2023-08-24T13:02:56;12.80;;;6.05;;
43580;SDS011;29175;51.030;4.606;2023-08-24T13:05:22;13.52;;;5.80;;
43580;SDS011;29175;51.030;4.606;2023-08-24T13:07:49;9.75;;;4.63;;
43580;SDS011;29175;51.030;4.606;2023-08-24T13:10:15;7.45;;;5.03;;
43580;SDS011;29175;51.030;4.606;2023-08-24T13:12:41;11.50;;;5.30;;
43580;SDS011;29175;51.030;4.606;2023-08-24T13:15:07;9.77;;;4.65;;
43580;SDS011;29175;51.030;4.606;2023-08-24T13:17:34;7.65;;;4.35;;
43580;SDS011;29175;51.030;4.606;2023-08-24T13:20:01;11.48;;;4.43;;
43580;SDS011;29175;51.030;4.606;2023-08-24T13:22:28;12.73;;;4.45;;
43580;SDS011;29175;51.030;4.606;2023-08-24T13:24:54;8.82;;;3.88;;
43580;SDS011;29175;51.030;4.606;2023-08-24T13:27:20;7.47;;;4.50;;
43580;SDS011;29175;51.030;4.606;2023-08-24T13:29:46;8.00;;;3.90;;
43580;SDS011;29175;51.030;4.606;2023-08-24T13:32:12;5.82;;;3.83;;
43580;SDS011;29175;51.030;4.606;2023-08-24T13:34:37;8.10;;;3.72;;
43580;SDS011;29175;51.030;4.606;2023-08-24T13:37:03;9.77;;;4.47;;
43580;SDS011;29175;51.030;4.606;2023-08-24T13:39:29;11.40;;;4.72;;
43580;SDS011;29175;51.030;4.606;2023-08-24T13:42:01;10.10;;;4.35;;
43580;SDS011;29175;51.030;4.606;2023-08-24T13:44:27;8.40;;;3.90;;
43580;SDS011;29175;51.030;4.606;2023-08-24T13:46:53;7.97;;;3.72;;
43580;SDS011;29175;51.030;4.606;2023-08-24T13:49:18;5.90;;;3.70;;
43580;SDS011;29175;51.030;4.606;2023-08-24T13:51:44;8.18;;;4.07;;
43580;SDS011;29175;51.030;4.606;2023-08-24T13:54:17;7.90;;;3.55;;
43580;SDS011;29175;51.030;4.606;2023-08-24T13:56:44;9.18;;;3.95;;
43580;SDS011;29175;51.030;4.606;2023-08-24T13:59:11;9.63;;;3.70;;
43580;SDS011;29175;51.030;4.606;2023-08-24T14:01:37;9.13;;;3.95;;
43580;SDS011;29175;51.030;4.606;2023-08-24T14:04:04;9.73;;;3.13;;
43580;SDS011;29175;51.030;4.606;2023-08-24T14:06:30;8.70;;;3.70;;
43580;SDS011;29175;51.030;4.606;2023-08-24T14:08:59;9.82;;;3.20;;
43580;SDS011;29175;51.030;4.606;2023-08-24T14:11:26;6.57;;;2.75;;
43580;SDS011;29175;51.030;4.606;2023-08-24T14:13:52;7.60;;;3.22;;
43580;SDS011;29175;51.030;4.606;2023-08-24T14:16:18;7.50;;;3.33;;
43580;SDS011;29175;51.030;4.606;2023-08-24T14:18:47;9.07;;;2.92;;
43580;SDS011;29175;51.030;4.606;2023-08-24T14:21:13;6.80;;;2.60;;
43580;SDS011;29175;51.030;4.606;2023-08-24T14:23:40;8.98;;;2.67;;
43580;SDS011;29175;51.030;4.606;2023-08-24T14:26:06;5.35;;;2.60;;
43580;SDS011;29175;51.030;4.606;2023-08-24T14:28:51;6.80;;;2.75;;
43580;SDS011;29175;51.030;4.606;2023-08-24T14:31:27;6.47;;;2.38;;
43580;SDS011;29175;51.030;4.606;2023-08-24T14:33:56;8.07;;;3.03;;
43580;SDS011;29175;51.030;4.606;2023-08-24T14:36:22;5.45;;;2.90;;
43580;SDS011;29175;51.030;4.606;2023-08-24T14:38:49;6.35;;;2.72;;
43580;SDS011;29175;51.030;4.606;2023-08-24T14:41:18;5.72;;;2.20;;
43580;SDS011;29175;51.030;4.606;2023-08-24T14:43:44;6.70;;;2.80;;
43580;SDS011;29175;51.030;4.606;2023-08-24T14:46:11;7.57;;;2.65;;
43580;SDS011;29175;51.030;4.606;2023-08-24T14:48:37;6.20;;;2.50;;
43580;SDS011;29175;51.030;4.606;2023-08-24T14:51:02;6.03;;;2.60;;
43580;SDS011;29175;51.030;4.606;2023-08-24T14:53:28;10.57;;;3.83;;